Allendale, MI

9:37 AM EST on February 28, 2015 (GMT -0500)
Tulip City | Change Station
CLOSE
Current Station
Airport
Location: Holland,
Elevation: 686 ft
Nearby Weather Stations

Elev 686 ft 42.75 °N, 86.10 °W | Updated 44 minutes ago

Partly Cloudy
Partly Cloudy
2 °F
Feels Like -11 °F
N
7
Wind Variable Wind from South

Today
High -- | Low -- °F
--% Chance of Precip.
Yesterday
High -- | Low -- °F
Precip. -- in
7:21 AM 6:31 PM
Waxing Gibbous, 78% visible
Pressure 30.78 in
Visibility 10.0 miles
Clouds Clear
Windchill -11 °F
Dew Point -3 °F
Humidity 80%
Rainfall 0.00 in
Snow Depth Not available.
UV 1 out of 12
Pollen .30 out of 12
Air Quality Not available.
Flu Activity Not available.
METAR KBIV 281353Z AUTO 18006KT 10SM CLR M17/M19 A3072 RMK AO2 SLP421 T11671194 $

More Conditions Fewer Conditions

Pressure 30.78 in
Visibility 10.0 miles
Clouds Clear
Windchill -11 °F
Dew Point -3 °F
Humidity 80%
Rainfall 0.00 in
Snow Depth Not available.
UV 1 out of 12
Pollen .30 out of 12
Air Quality Not available.
Flu Activity Not available.
METAR KBIV 281353Z AUTO 18006KT 10SM CLR M17/M19 A3072 RMK AO2 SLP421 T11671194 $

More Conditions Fewer Conditions

10-Day Weather Forecast

Almanac

Astronomy

Feb. 28, 2015 Rise Set
Actual Time
Civil Twilight
Nautical Twilight
Astronomical Twilight
Moon
Length of Visible Light
Length of Day
Tomorrow will be .
, % of the Moon is Illuminated

Today's Extremes

State Highs State Lows

Community

WunderPhotos

Upload Photos

1,801,022 photos uploaded!

WunderBlogs® & News

Nearby

Air Quality

  Air Quality AQ Index Pollutant
Not available.

Snow Depth

Station Depth Elevation

Earthquake Activity

City Distance Mag. Time & Date
Minimum magnitude displayed is 2.5.

Coastal Water Temperatures

Place Temperature

Nearby Weather Stations